Time;durP1;ratioP1;P1;durP2;ratioP2;P2;SDS_P1;SDS_P2;PMS_P1;PMS_P2;Temp;Humidity;BMP_temperature;BMP_pressure;BME280_temperature;BME280_humidity;BME280_pressure;Samples;Min_cycle;Max_cycle;Signal;HPM_P1;HPM_P2
2022/02/04 00:06:37;;;;;;;36.47;22.98;;;;;;;6.23;100.00;100853.38;10128033;28;20914;-64
2022/02/04 00:22:41;;;;;;;37.00;22.55;;;;;;;6.09;100.00;100847.78;10143917;28;20086;-63
2022/02/04 00:27:38;;;;;;;38.08;23.15;;;;;;;6.17;100.00;100838.22;10156999;28;20125;-64
2022/02/04 00:32:36;;;;;;;38.92;23.15;;;;;;;6.15;100.00;100843.13;10166183;28;20061;-63
2022/02/04 00:37:57;;;;;;;38.20;23.58;;;;;;;6.11;100.00;100843.69;10157275;28;20564;-63
2022/02/04 00:42:58;;;;;;;39.17;24.92;;;;;;;6.11;100.00;100838.25;10151825;28;20157;-63
2022/02/04 00:48:06;;;;;;;40.85;25.63;;;;;;;6.07;100.00;100831.78;10150680;28;20468;-63
2022/02/04 00:53:10;;;;;;;41.08;25.90;;;;;;;6.12;100.00;100833.63;10169495;28;20046;-63
2022/02/04 01:29:28;;;;;;;47.67;28.95;;;;;;;6.04;100.00;100835.06;10160919;28;20487;-62
2022/02/04 01:34:25;;;;;;;46.63;27.33;;;;;;;6.05;100.00;100839.38;10126193;28;20642;-62
2022/02/04 01:39:21;;;;;;;49.85;29.63;;;;;;;6.09;100.00;100829.59;10155711;28;20582;-63
2022/02/04 01:44:22;;;;;;;52.60;29.98;;;;;;;6.14;100.00;100830.66;10156291;28;20133;-62
2022/02/04 01:49:19;;;;;;;51.45;28.02;;;;;;;6.10;100.00;100825.78;10149670;28;20077;-64
2022/02/04 01:54:16;;;;;;;50.45;29.48;;;;;;;6.10;100.00;100830.38;10141332;28;20129;-64
2022/02/04 01:59:13;;;;;;;48.45;30.90;;;;;;;6.16;100.00;100820.31;10163628;28;20050;-63
2022/02/04 02:04:12;;;;;;;54.33;29.50;;;;;;;6.13;100.00;100839.88;10122798;28;20126;-63
2022/02/04 02:09:09;;;;;;;50.75;28.52;;;;;;;6.07;100.00;100826.34;10109471;28;1040831;-64
2022/02/04 02:14:09;;;;;;;54.63;29.23;;;;;;;6.09;100.00;100813.31;10142454;28;20493;-64
2022/02/04 02:45:50;;;;;;;52.63;29.50;;;;;;;6.16;100.00;100804.03;10159689;28;20088;-64
2022/02/04 02:56:26;;;;;;;52.90;31.70;;;;;;;6.09;100.00;100813.31;10144867;28;20049;-64
2022/02/04 03:01:18;;;;;;;57.25;34.55;;;;;;;6.14;100.00;100790.72;10143609;28;20050;-64
2022/02/04 03:06:15;;;;;;;55.38;33.35;;;;;;;6.14;100.00;100787.22;10147477;28;20121;-64
2022/02/04 03:11:12;;;;;;;56.53;28.65;;;;;;;6.10;100.00;100793.22;10145642;28;20066;-63
2022/02/04 03:16:13;;;;;;;55.67;33.13;;;;;;;6.21;100.00;100784.97;10145402;28;20097;-63
2022/02/04 03:21:35;;;;;;;56.13;34.75;;;;;;;6.21;100.00;100774.09;10144503;28;20050;-63
2022/02/04 03:31:33;;;;;;;59.00;36.08;;;;;;;6.20;100.00;100764.34;10125069;28;20078;-63
2022/02/04 03:36:30;;;;;;;56.85;32.42;;;;;;;6.24;100.00;100770.81;10142073;28;20121;-65
2022/02/04 03:41:26;;;;;;;56.42;33.83;;;;;;;6.24;100.00;100757.22;10142849;28;20536;-65
2022/02/04 03:46:23;;;;;;;55.75;34.58;;;;;;;6.25;100.00;100756.94;10148923;28;20051;-65
2022/02/04 03:51:19;;;;;;;59.50;36.10;;;;;;;6.24;100.00;100757.22;10128591;28;20509;-64
2022/02/04 03:56:16;;;;;;;61.05;37.67;;;;;;;6.21;100.00;100739.59;10146299;28;20042;-63
2022/02/04 04:01:13;;;;;;;60.83;36.42;;;;;;;6.28;100.00;100744.69;10139559;28;20473;-63
2022/02/04 04:06:11;;;;;;;59.20;36.92;;;;;;;6.24;100.00;100749.91;10154833;28;20045;-63
2022/02/04 04:11:07;;;;;;;57.50;35.53;;;;;;;6.22;100.00;100745.84;10164547;28;20078;-63
2022/02/04 04:16:04;;;;;;;61.85;35.83;;;;;;;6.27;100.00;100738.47;10127469;28;20121;-63
2022/02/04 04:21:01;;;;;;;56.30;34.78;;;;;;;6.27;100.00;100737.66;10129497;28;20318;-64
2022/02/04 04:25:57;;;;;;;58.70;34.60;;;;;;;6.26;100.00;100736.03;10165809;28;20080;-65
2022/02/04 04:30:54;;;;;;;57.63;33.95;;;;;;;6.27;100.00;100727.59;10141900;28;20129;-65
2022/02/04 04:35:50;;;;;;;55.53;33.50;;;;;;;6.27;100.00;100729.53;10155637;28;20088;-65
2022/02/04 05:33:21;;;;;;;41.97;25.42;;;;;;;6.10;100.00;100679.22;10148486;28;20046;-64
2022/02/04 05:38:22;;;;;;;44.70;24.52;;;;;;;6.16;100.00;100671.00;10143201;28;20054;-64
2022/02/04 05:43:23;;;;;;;37.85;23.83;;;;;;;6.16;100.00;100676.44;10145744;28;20054;-63
2022/02/04 05:48:21;;;;;;;39.17;24.80;;;;;;;6.15;100.00;100669.38;10133908;28;20038;-62
2022/02/04 05:53:24;;;;;;;43.08;25.42;;;;;;;6.16;100.00;100655.50;10150589;28;20073;-62
2022/02/04 06:03:37;;;;;;;41.13;24.13;;;;;;;6.17;100.00;100640.81;10138218;28;20086;-65
2022/02/04 06:24:04;;;;;;;44.22;25.10;;;;;;;6.21;100.00;100614.72;10149443;28;20134;-66
2022/02/04 06:29:00;;;;;;;40.38;25.30;;;;;;;6.15;100.00;100621.34;10153771;28;20504;-66
2022/02/04 06:33:57;;;;;;;41.65;24.67;;;;;;;6.20;100.00;100620.47;10152815;28;20081;-67
2022/02/04 06:38:54;;;;;;;39.95;24.08;;;;;;;6.22;100.00;100610.09;10154089;28;20053;-67
2022/02/04 06:43:50;;;;;;;42.78;22.80;;;;;;;6.21;100.00;100619.34;10142237;28;20043;-66
2022/02/04 06:48:49;;;;;;;42.17;25.27;;;;;;;6.20;100.00;100617.75;10141334;28;20050;-66
2022/02/04 06:53:46;;;;;;;48.67;32.60;;;;;;;6.19;100.00;100621.53;10138353;28;20050;-67
2022/02/04 06:58:43;;;;;;;43.25;25.42;;;;;;;6.22;100.00;100616.34;10144630;28;20034;-67
2022/02/04 07:03:40;;;;;;;42.10;25.65;;;;;;;6.24;100.00;100629.63;10142183;28;20409;-66
2022/02/04 07:23:55;;;;;;;44.25;27.48;;;;;;;6.27;100.00;100612.75;10142567;28;20533;-68
2022/02/04 07:28:54;;;;;;;42.58;27.63;;;;;;;6.30;100.00;100614.88;10146085;28;20070;-68
2022/02/04 07:34:04;;;;;;;42.33;26.35;;;;;;;6.34;100.00;100610.50;10145653;28;20042;-68
2022/02/04 07:44:10;;;;;;;44.97;26.23;;;;;;;6.35;100.00;100603.16;10142024;28;20039;-64
2022/02/04 07:49:07;;;;;;;45.35;27.77;;;;;;;6.36;100.00;100592.00;10144757;28;20045;-66
2022/02/04 07:54:04;;;;;;;42.40;25.00;;;;;;;6.31;100.00;100578.47;10143006;28;20096;-67
2022/02/04 07:59:06;;;;;;;42.78;27.40;;;;;;;6.37;100.00;100577.31;10148531;28;20062;-71
2022/02/04 08:04:16;;;;;;;;;;;;;;;6.43;100.00;100573.44;10152110;28;20047;-70
2022/02/04 08:09:34;;;;;;;41.53;26.88;;;;;;;6.45;100.00;100563.09;10147201;28;19964;-69
2022/02/04 08:31:02;;;;;;;44.25;26.40;;;;;;;6.63;100.00;100560.66;10142951;28;20101;-67
2022/02/04 08:51:14;;;;;;;37.92;26.10;;;;;;;6.78;100.00;100557.69;10149980;28;20046;-67
2022/02/04 08:56:11;;;;;;;38.20;24.15;;;;;;;6.80;100.00;100558.22;10151801;28;20070;-66
2022/02/04 09:01:23;;;;;;;40.47;25.25;;;;;;;6.79;100.00;100548.44;10151880;28;20050;-67
2022/02/04 09:06:27;;;;;;;39.97;26.15;;;;;;;6.88;100.00;100557.53;10150082;28;20116;-66
2022/02/04 09:21:52;;;;;;;32.05;19.20;;;;;;;6.92;100.00;100539.53;10146827;28;20133;-66
2022/02/04 09:26:51;;;;;;;33.28;22.42;;;;;;;7.03;100.00;100532.03;10147880;28;20109;-66
2022/02/04 09:31:48;;;;;;;30.70;21.90;;;;;;;7.02;100.00;100518.72;10150247;28;20125;-67
2022/02/04 09:36:45;;;;;;;32.15;21.88;;;;;;;7.15;100.00;100517.94;10151871;28;20073;-67
2022/02/04 09:41:43;;;;;;;29.60;20.10;;;;;;;7.15;100.00;100507.06;10149418;28;20555;-67
2022/02/04 09:46:40;;;;;;;29.55;20.73;;;;;;;7.13;100.00;100514.72;10152899;28;20105;-68
2022/02/04 10:04:16;;;;;;;29.70;21.10;;;;;;;7.14;100.00;100510.88;10151580;28;20070;-68
2022/02/04 10:07:49;;;;;;;28.20;18.65;;;;;;;7.21;100.00;100473.22;10146345;28;20050;-68
2022/02/04 10:18:05;;;;;;;24.63;17.25;;;;;;;7.31;100.00;100467.59;10150808;28;20551;-67
2022/02/04 10:23:02;;;;;;;26.67;17.58;;;;;;;7.36;100.00;100453.91;10152534;28;20121;-68
2022/02/04 10:28:18;;;;;;;23.27;17.67;;;;;;;7.47;100.00;100445.50;10151065;28;20073;-68
2022/02/04 10:33:15;;;;;;;23.33;18.23;;;;;;;7.61;100.00;100443.59;10145240;28;20050;-68
2022/02/04 10:48:46;;;;;;;22.38;16.67;;;;;;;7.67;100.00;100419.81;10146314;28;20138;-68
2022/02/04 10:54:34;;;;;;;22.05;15.35;;;;;;;7.62;100.00;100396.22;10153101;28;20079;-66
2022/02/04 10:59:43;;;;;;;21.27;15.57;;;;;;;7.69;100.00;100387.66;10148837;28;20125;-67
2022/02/04 11:36:13;;;;;;;15.05;12.40;;;;;;;8.04;100.00;100331.56;10148279;28;20604;-67
2022/02/04 11:52:05;;;;;;;14.88;10.82;;;;;;;8.22;100.00;100284.25;10151741;28;20492;-67
2022/02/04 11:57:01;;;;;;;;;;;;;;;8.48;100.00;100275.44;10151608;28;20073;-67
2022/02/04 12:02:22;;;;;;;16.27;10.23;;;;;;;8.43;100.00;100262.75;10154118;28;20390;-66
2022/02/04 12:07:47;;;;;;;12.88;9.60;;;;;;;8.40;100.00;100257.94;10153231;28;20570;-67
2022/02/04 12:12:52;;;;;;;15.43;8.90;;;;;;;8.52;100.00;100260.06;10150161;28;20137;-67
2022/02/04 12:17:49;;;;;;;11.73;8.60;;;;;;;8.41;100.00;100256.03;10154804;28;20506;-67
2022/02/04 12:22:50;;;;;;;12.68;7.95;;;;;;;8.33;100.00;100241.22;10156330;28;20121;-67
2022/02/04 12:27:52;;;;;;;12.00;8.30;;;;;;;8.36;100.00;100229.69;10152132;28;20129;-66
2022/02/04 12:32:50;;;;;;;13.25;8.18;;;;;;;8.35;100.00;100217.16;10156612;28;20081;-67
2022/02/04 12:37:47;;;;;;;12.18;7.65;;;;;;;8.22;100.00;100240.69;10157913;28;20563;-67
2022/02/04 12:42:45;;;;;;;15.27;7.40;;;;;;;8.11;100.00;100212.13;10156992;28;20050;-66
2022/02/04 12:47:42;;;;;;;9.88;7.43;;;;;;;8.05;100.00;100196.22;10188936;28;20639;-67
2022/02/04 12:52:45;;;;;;;11.45;7.25;;;;;;;8.11;100.00;100190.34;10194567;28;20125;-66
2022/02/04 12:57:54;;;;;;;;;;;;;;;8.10;100.00;100183.28;10185655;28;20516;-67
2022/02/04 13:03:10;;;;;;;14.23;6.70;;;;;;;8.10;100.00;100188.75;10156203;28;19953;-67
2022/02/04 13:08:16;;;;;;;9.55;6.07;;;;;;;8.07;100.00;100159.41;10161267;28;20500;-67
2022/02/04 13:13:26;;;;;;;9.45;6.13;;;;;;;8.09;100.00;100154.44;10155525;28;20053;-66
2022/02/04 13:18:25;;;;;;;10.38;5.85;;;;;;;8.08;100.00;100152.84;10170440;28;20147;-66
2022/02/04 13:23:29;;;;;;;10.38;5.35;;;;;;;8.11;100.00;100152.22;10175920;28;20073;-67
2022/02/04 13:28:35;;;;;;;10.57;4.90;;;;;;;8.03;100.00;100142.09;10177266;28;20073;-67
2022/02/04 13:33:42;;;;;;;12.15;4.47;;;;;;;8.04;100.00;100126.56;10164177;28;20105;-67
2022/02/04 13:38:48;;;;;;;10.07;4.50;;;;;;;8.09;100.00;100127.22;10178795;28;20042;-67
2022/02/04 13:44:16;;;;;;;7.60;4.00;;;;;;;8.09;100.00;100119.03;10188969;28;20050;-67
2022/02/04 13:59:38;;;;;;;8.40;2.85;;;;;;;8.05;100.00;100093.56;10149433;28;20093;-66
2022/02/04 14:04:34;;;;;;;5.55;2.92;;;;;;;8.04;100.00;100081.09;10153240;28;20054;-67
2022/02/04 14:09:38;;;;;;;11.88;2.50;;;;;;;8.06;100.00;100095.19;10151136;28;20497;-67
2022/02/04 14:14:36;;;;;;;5.97;2.55;;;;;;;8.13;100.00;100072.94;10144725;28;20140;-66
2022/02/04 14:19:32;;;;;;;6.63;2.42;;;;;;;8.11;100.00;100050.66;10147214;28;20497;-67
2022/02/04 14:24:30;;;;;;;9.07;2.60;;;;;;;8.09;100.00;100056.44;10151545;28;20165;-67
2022/02/04 14:29:33;;;;;;;6.53;2.55;;;;;;;8.05;100.00;100047.28;10151231;28;20046;-67
2022/02/04 14:35:00;;;;;;;5.30;3.53;;;;;;;7.99;100.00;100040.41;10148946;28;20085;-67
2022/02/04 15:06:03;;;;;;;5.40;2.70;;;;;;;8.03;100.00;100008.72;10146085;28;20104;-66
2022/02/04 15:11:22;;;;;;;5.78;2.78;;;;;;;8.00;100.00;99992.97;10146699;28;20747;-67
2022/02/04 15:16:18;;;;;;;4.80;3.20;;;;;;;7.98;100.00;99989.78;10147687;28;20129;-66
2022/02/04 15:21:18;;;;;;;4.72;2.92;;;;;;;7.92;100.00;99964.66;10148788;28;20042;-67
2022/02/04 15:26:16;;;;;;;4.95;2.40;;;;;;;7.91;100.00;99959.50;10142917;28;20078;-67
2022/02/04 15:32:15;;;;;;;4.47;2.90;;;;;;;7.83;100.00;99950.22;10148779;28;20078;-67
2022/02/04 15:36:43;;;;;;;4.70;2.55;;;;;;;7.85;100.00;99941.75;10140521;28;20104;-67
2022/02/04 15:41:40;;;;;;;4.63;2.72;;;;;;;7.88;100.00;99930.22;10151248;28;20046;-67
2022/02/04 16:06:23;;;;;;;4.40;2.20;;;;;;;7.63;100.00;99899.91;10162420;28;20081;-67
2022/02/04 16:16:41;;;;;;;4.57;2.83;;;;;;;7.41;100.00;99881.00;10165125;28;20543;-67
2022/02/04 16:31:44;;;;;;;6.82;4.05;;;;;;;7.37;100.00;99850.91;10156892;28;20086;-66
2022/02/04 16:36:44;;;;;;;6.22;4.22;;;;;;;7.34;100.00;99852.34;10156799;28;20077;-66
2022/02/04 16:41:58;;;;;;;7.60;4.68;;;;;;;7.37;100.00;99840.03;10156243;28;20137;-67
2022/02/04 16:46:54;;;;;;;6.53;4.88;;;;;;;7.34;100.00;99841.47;10159684;28;20080;-67
2022/02/04 16:51:51;;;;;;;4.93;3.95;;;;;;;7.34;100.00;99841.47;10156934;28;20061;-67
2022/02/04 16:56:47;;;;;;;6.25;4.35;;;;;;;7.32;100.00;99838.28;10152451;28;20133;-67
2022/02/04 17:01:44;;;;;;;5.72;3.92;;;;;;;7.22;100.00;99841.31;10164659;28;20100;-67
2022/02/04 17:06:45;;;;;;;5.22;3.58;;;;;;;7.15;100.00;99844.47;10152319;28;20077;-67
2022/02/04 17:11:47;;;;;;;7.72;3.97;;;;;;;7.03;100.00;99843.47;10152956;28;20077;-66
2022/02/04 17:16:44;;;;;;;5.47;3.95;;;;;;;6.94;100.00;99857.06;10153203;28;20069;-66
2022/02/04 17:21:41;;;;;;;7.28;3.88;;;;;;;6.23;100.00;99916.72;10154913;28;20125;-65
2022/02/04 17:26:37;;;;;;;3.35;1.30;;;;;;;5.32;100.00;99950.16;10152158;28;20145;-65
2022/02/04 17:31:34;;;;;;;6.88;1.67;;;;;;;4.92;100.00;99955.22;10153683;28;20136;-65
2022/02/04 17:36:36;;;;;;;5.18;1.20;;;;;;;4.36;100.00;99971.31;10162169;28;20064;-65
2022/02/04 17:41:33;;;;;;;6.05;2.03;;;;;;;4.27;100.00;99978.50;10194639;28;20145;-65
2022/02/04 17:46:29;;;;;;;6.13;1.52;;;;;;;3.87;100.00;99998.78;10166799;28;20051;-66
2022/02/04 17:56:37;;;;;;;8.68;2.88;;;;;;;3.64;100.00;100036.38;10151224;28;20120;-66
2022/02/04 18:01:40;;;;;;;2.58;1.10;;;;;;;3.58;100.00;100049.16;10146658;28;20049;-66
2022/02/04 18:11:51;;;;;;;2.95;1.50;;;;;;;2.96;100.00;100075.13;10149043;28;20523;-66
2022/02/04 18:16:47;;;;;;;9.93;2.53;;;;;;;2.78;100.00;100098.22;10150246;28;20046;-66
2022/02/04 18:21:43;;;;;;;4.22;1.60;;;;;;;2.77;100.00;100109.31;10145413;28;20125;-65
2022/02/04 18:26:40;;;;;;;7.45;3.70;;;;;;;2.64;100.00;100125.03;10151179;28;20042;-66
2022/02/04 18:31:37;;;;;;;6.75;3.95;;;;;;;2.65;100.00;100132.06;10158151;28;20123;-66
2022/02/04 18:36:33;;;;;;;6.15;3.42;;;;;;;2.51;100.00;100145.38;10155739;28;20504;-66
2022/02/04 18:41:51;;;;;;;5.30;3.17;;;;;;;2.69;100.00;100152.03;10159500;28;20081;-67
2022/02/04 18:46:58;;;;;;;4.53;2.40;;;;;;;2.66;100.00;100168.75;10151878;28;20054;-67
2022/02/04 18:52:18;;;;;;;5.50;3.08;;;;;;;2.69;100.00;100189.81;10148573;28;20073;-67
2022/02/04 18:57:21;;;;;;;7.07;4.35;;;;;;;2.79;100.00;100196.25;10146080;28;20050;-67
2022/02/04 19:02:19;;;;;;;6.35;3.40;;;;;;;2.73;100.00;100223.25;10168384;28;20046;-67
2022/02/04 19:07:20;;;;;;;8.05;4.15;;;;;;;2.58;100.00;100228.72;10142820;28;20049;-67
2022/02/04 19:12:21;;;;;;;5.88;2.65;;;;;;;2.55;100.00;100242.75;10140961;28;20149;-67
2022/02/04 19:17:28;;;;;;;8.00;3.40;;;;;;;2.60;100.00;100258.94;10151931;28;20673;-68
2022/02/04 19:22:31;;;;;;;4.47;2.28;;;;;;;2.48;100.00;100288.13;10151927;28;20467;-66
2022/02/04 19:27:28;;;;;;;5.30;2.20;;;;;;;2.47;100.00;100300.00;10148914;28;20058;-67
2022/02/04 19:32:25;;;;;;;3.20;1.60;;;;;;;2.41;100.00;100312.69;10151494;28;20104;-68
2022/02/04 19:37:23;;;;;;;3.53;1.92;;;;;;;2.50;100.00;100312.94;10150367;28;20050;-67
2022/02/04 19:47:27;;;;;;;3.92;1.73;;;;;;;2.24;100.00;100356.16;10151780;28;20058;-67
2022/02/04 20:23:33;;;;;;;2.72;1.27;;;;;;;1.98;100.00;100395.00;10150280;28;20046;-66
2022/02/04 20:23:39;;;;;;;4.07;1.67;;;;;;;2.10;100.00;100409.03;10157071;28;20061;-67
2022/02/04 20:28:36;;;;;;;3.90;1.83;;;;;;;2.07;100.00;100414.97;10162511;28;20046;-66
2022/02/04 20:33:32;;;;;;;4.53;1.70;;;;;;;2.18;100.00;100427.38;10155463;28;20042;-67
2022/02/04 20:38:41;;;;;;;5.95;2.20;;;;;;;2.30;100.00;100430.63;10178011;28;20108;-68
2022/02/04 20:43:39;;;;;;;3.60;1.50;;;;;;;2.41;100.00;100436.00;10154293;28;20089;-68
2022/02/04 20:48:37;;;;;;;4.55;1.80;;;;;;;2.53;100.00;100433.88;10185846;28;20134;-67
2022/02/04 20:53:36;;;;;;;4.57;1.80;;;;;;;2.55;100.00;100447.88;10158098;28;20046;-67
2022/02/04 20:58:32;;;;;;;7.15;2.22;;;;;;;2.71;100.00;100446.78;10193916;28;20046;-68
2022/02/04 21:03:34;;;;;;;6.50;2.05;;;;;;;2.74;100.00;100451.66;10193049;28;20148;-68
2022/02/04 21:18:42;;;;;;;7.18;1.80;;;;;;;2.98;100.00;100482.69;10159412;28;20501;-67
2022/02/04 21:23:39;;;;;;;6.18;1.70;;;;;;;2.93;100.00;100491.59;10156773;28;20061;-67
2022/02/04 21:28:38;;;;;;;10.57;1.65;;;;;;;2.90;100.00;100502.94;10158582;28;20517;-67
2022/02/04 21:33:44;;;;;;;12.32;2.08;;;;;;;2.97;100.00;100508.88;10162908;28;20046;-67
2022/02/04 21:38:40;;;;;;;8.73;2.10;;;;;;;2.85;100.00;100505.63;10155346;28;20803;-67
2022/02/04 21:43:41;;;;;;;13.55;2.38;;;;;;;2.90;100.00;100508.31;10161330;28;20081;-67
2022/02/04 21:48:50;;;;;;;9.05;1.95;;;;;;;2.82;100.00;100535.88;10169976;28;20046;-67
2022/02/04 21:53:48;;;;;;;12.55;2.38;;;;;;;2.68;100.00;100546.41;10175980;28;20771;-69
2022/02/04 21:58:46;;;;;;;10.95;2.25;;;;;;;2.71;100.00;100546.66;10158569;28;20081;-67
2022/02/04 22:03:44;;;;;;;11.07;2.40;;;;;;;2.71;100.00;100543.97;10157874;28;20113;-67
2022/02/04 22:13:54;;;;;;;3.28;0.93;;;;;;;2.64;100.00;100546.13;10161725;28;20038;-66
2022/02/04 22:24:06;;;;;;;13.02;1.92;;;;;;;2.52;100.00;100553.69;10171916;28;20046;-68
2022/02/04 22:29:03;;;;;;;9.02;1.42;;;;;;;2.60;100.00;100574.75;10178454;28;20046;-67
2022/02/04 22:34:20;;;;;;;15.90;2.22;;;;;;;2.65;100.00;100566.66;10157395;28;20088;-67
2022/02/04 22:39:51;;;;;;;9.48;1.70;;;;;;;2.76;100.00;100585.56;10184132;28;20132;-67
2022/02/04 22:50:06;;;;;;;12.27;1.90;;;;;;;2.71;100.00;100611.47;10185477;28;20136;-67
2022/02/04 22:55:27;;;;;;;13.43;1.60;;;;;;;2.82;100.00;100608.78;10150998;28;20088;-68
2022/02/04 23:00:50;;;;;;;12.15;1.80;;;;;;;2.79;100.00;100620.16;10130041;28;20134;-67
2022/02/04 23:05:47;;;;;;;14.33;1.83;;;;;;;2.72;100.00;100621.19;10155279;28;20092;-66
2022/02/04 23:10:43;;;;;;;14.93;1.77;;;;;;;2.66;100.00;100616.88;10160945;28;20069;-67
2022/02/04 23:15:44;;;;;;;14.00;2.45;;;;;;;2.68;100.00;100622.81;10174154;28;20129;-66
2022/02/04 23:20:41;;;;;;;16.20;2.28;;;;;;;2.68;100.00;100630.91;10152605;28;20134;-67
2022/02/04 23:25:44;;;;;;;13.48;2.10;;;;;;;2.65;100.00;100655.75;10162950;28;20675;-67
2022/02/04 23:30:59;;;;;;;19.70;2.30;;;;;;;2.66;100.00;100654.66;10138772;28;20208;-67
2022/02/04 23:46:51;;;;;;;9.43;1.75;;;;;;;2.66;100.00;100670.06;10164483;28;20038;-65
2022/02/04 23:51:43;;;;;;;17.15;2.67;;;;;;;2.69;100.00;100675.75;10152589;28;20094;-66
2022/02/04 23:56:40;;;;;;;8.60;2.80;;;;;;;2.65;100.00;100680.03;10152784;28;20122;-66
